Comodoro Arturo Merino Benítez International Airport
SCEL : now visible

Airfield :











YOU CAN JOIN US ON...

 
LOGIN :

Register | Disclaimer

   EN    FR    IT 

 









Legend :    VFR   Marginal VFR   IFR   Intensive IFR   Very Intensive IFR
Visi :
Ceiling :
>= 8 km
>= 3000ft
5 to 8 km
1000 to 3000 ft
1500m to 5 km
500 to 1000 ft
800 to 1500m
200 to 500 ft
< 800m
< 200 ft
Symbols :   Thunderstorms  Fog  Heavy snow  Heavy precipitations  Wind > 20 kt






- Airport Elevation : 1555 ft
- IATA code : SCL


SCEL - Comodoro Arturo Merino Benítez International

CURRENT METAR :
  • 050400Z AUTO 02004KT 7000 NCD 05/03 Q1024

EXPIRED METARs :
  • 050300Z 35003KT 8000 NSC 06/04 Q1024 NOSIG
  • 050200Z 00000KT 8000 NSC 08/04 Q1023 NOSIG

TAF TAF SCEL
Valid from the 05 at 00:00 until the 06 at 00:00 UTC


042211Z 0500/0524 18006KT CAVOK TX17/0518Z TN00/0510Z
BECMG 0501/0503 16004KT
TEMPO 0506/0513 VRB02KT 3000 BR
BECMG 0515/0517 18008KT
SCEZ FIR / South America



MET'MAP, your aeronautical weather chart ! - Copyright ORBIFLY December 2007 - Disclaimer

ORBIFLY MET'MAP TEAM :

Programming & Development : Alexandra Zaïnal
Concept & original design : Baudouin d'Aumeries
Assistance for programming : Marc-Olivier Méhu
Technical & hardware support : Manuel Goepfert

Contact : metmap@orbifly.com




SOURCES & CREDITS :

   NOAA       Earth
Advisory